Time;durP1;ratioP1;P1;durP2;ratioP2;P2;SDS_P1;SDS_P2;PMS_P1;PMS_P2;Temp;Humidity;BMP_temperature;BMP_pressure;BME280_temperature;BME280_humidity;BME280_pressure;Samples;Min_cycle;Max_cycle;Signal;HPM_P1;HPM_P2
2023/06/01 00:01:59;;;;;;;5.72;2.50;;;;;;;12.88;38.47;95957.69;4934060;29;20025;-84
2023/06/01 00:04:24;;;;;;;4.15;2.30;;;;;;;12.95;38.24;95951.59;4925827;29;20043;-84
2023/06/01 00:06:49;;;;;;;4.03;2.40;;;;;;;12.85;38.29;95959.91;4936426;28;20060;-84
2023/06/01 00:09:15;;;;;;;4.15;2.45;;;;;;;12.88;38.15;95955.00;4942436;28;20604;-85
2023/06/01 00:11:40;;;;;;;7.53;2.55;;;;;;;12.93;38.21;95952.59;4941930;28;20336;-85
2023/06/01 00:14:06;;;;;;;4.15;2.03;;;;;;;13.00;37.64;95949.22;4942374;28;20045;-85
2023/06/01 00:16:31;;;;;;;4.82;2.20;;;;;;;12.99;37.74;95952.88;4943076;28;20039;-84
2023/06/01 00:19:00;;;;;;;6.68;2.40;;;;;;;13.07;37.64;95952.81;4943417;28;20062;-84
2023/06/01 00:21:26;;;;;;;6.05;2.60;;;;;;;12.99;37.83;95947.53;4942580;29;20035;-84
2023/06/01 00:23:51;;;;;;;5.07;2.42;;;;;;;12.95;38.09;95949.75;4943197;28;20047;-84
2023/06/01 00:26:16;;;;;;;5.35;2.22;;;;;;;13.08;37.47;95953.66;4944882;28;20032;-84
2023/06/01 00:28:42;;;;;;;4.28;2.50;;;;;;;12.99;37.72;95947.53;4944269;28;20043;-84
2023/06/01 00:31:07;;;;;;;9.27;2.90;;;;;;;12.97;37.71;95945.06;4924825;28;20043;-85
2023/06/01 00:33:33;;;;;;;4.93;2.35;;;;;;;12.98;37.52;95943.22;4946219;29;20026;-84
2023/06/01 00:35:58;;;;;;;4.70;2.28;;;;;;;13.08;37.44;95948.31;4947135;28;20051;-84
2023/06/01 00:38:23;;;;;;;4.65;3.00;;;;;;;13.13;37.00;95940.56;4947112;29;20043;-85
2023/06/01 00:40:51;;;;;;;4.72;2.25;;;;;;;13.16;36.90;95943.66;4945766;28;20285;-85
2023/06/01 00:43:17;;;;;;;4.50;2.50;;;;;;;13.13;37.14;95944.03;4946896;28;20031;-84
2023/06/01 00:45:43;;;;;;;6.45;2.50;;;;;;;13.13;37.04;95944.03;4946884;28;20035;-84
2023/06/01 00:48:08;;;;;;;6.50;2.40;;;;;;;12.95;37.59;95938.25;4946790;28;20043;-84
2023/06/01 00:50:33;;;;;;;4.40;2.63;;;;;;;12.95;37.19;95941.72;4938515;29;20027;-85
2023/06/01 00:53:00;;;;;;;5.38;2.80;;;;;;;12.98;37.38;95945.91;4946750;28;20047;-85
2023/06/01 00:55:25;;;;;;;4.57;2.63;;;;;;;13.06;36.93;95937.81;4936075;29;20043;-85
2023/06/01 00:57:51;;;;;;;4.90;2.25;;;;;;;13.02;37.25;95945.34;4936400;29;20027;-85
2023/06/01 01:00:17;;;;;;;4.78;2.60;;;;;;;13.01;37.20;95945.53;4946823;28;20043;-71
2023/06/01 01:02:48;;;;;;;5.30;2.33;;;;;;;12.96;37.59;95937.22;4947627;23;20040;-74
2023/06/01 01:05:14;;;;;;;5.82;2.80;;;;;;;13.01;37.20;95938.34;4925409;29;20059;-75
2023/06/01 01:07:47;;;;;;;5.22;2.60;;;;;;;13.02;37.54;95939.19;4926343;28;20039;-75
2023/06/01 01:10:44;;;;;;;4.47;2.65;;;;;;;12.88;37.78;95938.97;4924827;29;20023;-74
2023/06/01 01:13:10;;;;;;;5.32;2.47;;;;;;;12.91;37.56;95935.09;4917155;28;20509;-75
2023/06/01 01:16:07;;;;;;;5.10;2.88;;;;;;;12.74;38.32;95945.97;4907563;29;20520;-74
2023/06/01 01:19:26;;;;;;;7.75;3.70;;;;;;;12.75;38.10;95933.47;4944425;29;20106;-75
2023/06/01 01:22:03;;;;;;;4.57;2.63;;;;;;;12.53;38.91;95938.69;4866745;29;20675;-75
2023/06/01 01:24:48;;;;;;;3.78;2.30;;;;;;;12.33;39.18;95939.19;4912580;29;20339;-77
2023/06/01 01:27:24;;;;;;;4.13;2.50;;;;;;;12.54;39.06;95940.31;4943011;28;20241;-77
2023/06/01 01:29:50;;;;;;;8.02;3.20;;;;;;;12.48;39.32;95938.41;4944037;29;20102;-76
2023/06/01 01:32:16;;;;;;;7.03;3.05;;;;;;;12.47;39.05;95939.41;4912575;29;20028;-76
2023/06/01 01:34:41;;;;;;;6.43;4.00;;;;;;;12.51;39.09;95943.38;4923828;29;20595;-77
2023/06/01 01:37:07;;;;;;;4.35;2.55;;;;;;;12.64;38.70;95940.91;4910889;29;20091;-76
2023/06/01 01:39:32;;;;;;;4.95;2.90;;;;;;;12.57;39.18;95929.28;4909621;29;20450;-76
2023/06/01 01:41:57;;;;;;;5.28;2.83;;;;;;;12.67;38.90;95934.34;4938498;29;20512;-76
2023/06/01 01:44:23;;;;;;;6.88;3.60;;;;;;;12.64;38.92;95937.38;4945473;28;20290;-76
2023/06/01 01:46:58;;;;;;;8.02;2.70;;;;;;;12.43;39.49;95925.59;4928068;28;20035;-77
2023/06/01 01:49:33;;;;;;;5.68;2.40;;;;;;;12.39;39.69;95930.47;4929469;29;20038;-77
2023/06/01 01:52:06;;;;;;;6.60;2.72;;;;;;;12.32;39.55;95929.53;4904531;29;20027;-74
2023/06/01 01:54:32;;;;;;;6.57;2.70;;;;;;;12.33;39.67;95928.53;4943748;29;20031;-74
2023/06/01 01:56:58;;;;;;;4.88;2.40;;;;;;;12.23;40.14;95933.28;4928154;29;20382;-75
2023/06/01 01:59:23;;;;;;;6.28;3.30;;;;;;;12.21;40.18;95927.31;4907261;29;20371;-74
2023/06/01 02:01:49;;;;;;;6.25;2.75;;;;;;;12.21;40.02;95929.97;4913070;29;20034;-75
2023/06/01 02:04:15;;;;;;;2.88;2.28;;;;;;;12.48;39.92;95928.53;4895443;29;20035;-75
2023/06/01 02:06:40;;;;;;;6.35;2.65;;;;;;;12.22;40.29;95929.81;4926512;29;20059;-75
2023/06/01 02:09:08;;;;;;;7.93;2.72;;;;;;;12.57;39.46;95929.28;4916228;29;20388;-75
2023/06/01 02:11:34;;;;;;;5.18;2.40;;;;;;;12.72;38.99;95920.47;4916972;29;20050;-75
2023/06/01 02:14:00;;;;;;;4.88;2.10;;;;;;;12.69;38.85;95918.16;4912428;29;20103;-75
2023/06/01 02:16:25;;;;;;;7.43;2.42;;;;;;;12.57;39.13;95918.59;4925194;29;20043;-74
2023/06/01 02:18:51;;;;;;;4.75;2.50;;;;;;;12.54;39.65;95913.63;4912961;29;20043;-74
2023/06/01 02:21:16;;;;;;;6.32;3.10;;;;;;;12.50;39.27;95913.19;4929271;29;20126;-75
2023/06/01 02:23:42;;;;;;;5.70;2.38;;;;;;;12.35;39.59;95915.84;4926075;29;20651;-75
2023/06/01 02:26:08;;;;;;;6.10;3.13;;;;;;;12.28;40.19;95912.25;4926559;29;20046;-75
2023/06/01 02:28:33;;;;;;;5.63;2.50;;;;;;;11.99;40.76;95911.13;4902436;29;20043;-75
2023/06/01 02:30:59;;;;;;;5.43;2.17;;;;;;;12.37;39.98;95911.13;4925259;29;20040;-74
2023/06/01 02:33:24;;;;;;;5.25;2.85;;;;;;;12.45;39.76;95920.06;4936244;29;20043;-75
2023/06/01 02:35:50;;;;;;;6.35;2.60;;;;;;;12.45;39.92;95912.06;4898140;29;20043;-74
2023/06/01 02:38:16;;;;;;;5.50;2.90;;;;;;;12.44;39.92;95913.09;4916577;29;20086;-75
2023/06/01 02:40:42;;;;;;;5.38;2.47;;;;;;;12.38;40.21;95920.78;4909274;29;20129;-75
2023/06/01 02:43:07;;;;;;;6.00;2.70;;;;;;;12.40;39.78;95918.78;4897754;29;20051;-75
2023/06/01 02:45:32;;;;;;;5.25;2.42;;;;;;;12.30;40.12;95918.22;4924666;29;20031;-74
2023/06/01 02:47:58;;;;;;;6.30;2.80;;;;;;;12.29;39.91;95919.22;4912699;29;20043;-75
2023/06/01 02:50:23;;;;;;;4.72;2.70;;;;;;;12.34;39.90;95913.34;4922878;29;20031;-75
2023/06/01 02:52:49;;;;;;;6.40;3.00;;;;;;;12.30;40.11;95906.72;4925206;29;20039;-75
2023/06/01 02:55:15;;;;;;;5.38;2.80;;;;;;;12.28;39.98;95913.03;4913774;29;20035;-75
2023/06/01 02:57:40;;;;;;;4.72;2.70;;;;;;;12.30;39.79;95915.53;4917810;29;20027;-75
2023/06/01 03:00:15;;;;;;;5.05;2.72;;;;;;;12.15;40.44;95905.69;4911629;29;20043;-75
2023/06/01 03:02:41;;;;;;;5.57;2.90;;;;;;;12.10;40.82;95901.91;4926085;29;20234;-75
2023/06/01 03:05:07;;;;;;;3.22;2.45;;;;;;;12.23;40.38;95903.91;4924875;29;20043;-75
2023/06/01 03:07:33;;;;;;;6.15;2.88;;;;;;;11.85;41.58;95900.22;4924811;29;20042;-75
2023/06/01 03:09:58;;;;;;;5.07;2.40;;;;;;;12.06;40.67;95904.09;4903682;29;20494;-75
2023/06/01 03:12:23;;;;;;;5.38;2.60;;;;;;;12.09;40.92;95902.88;4915201;29;20369;-75
2023/06/01 03:14:49;;;;;;;5.57;2.90;;;;;;;12.01;41.16;95903.78;4925778;29;20040;-75
2023/06/01 03:17:14;;;;;;;7.50;2.83;;;;;;;11.99;41.12;95905.78;4925288;29;20185;-74
2023/06/01 03:19:40;;;;;;;6.55;2.90;;;;;;;12.03;41.14;95901.72;4931200;29;20746;-75
2023/06/01 03:22:06;;;;;;;6.18;2.47;;;;;;;12.07;41.33;95900.41;4923630;29;20056;-74
2023/06/01 03:24:32;;;;;;;4.70;2.72;;;;;;;12.03;41.47;95904.41;4907704;29;20400;-75
2023/06/01 03:26:57;;;;;;;7.18;2.80;;;;;;;12.07;41.58;95896.91;4900450;29;20032;-75
2023/06/01 03:29:23;;;;;;;3.63;2.40;;;;;;;12.10;41.08;95900.03;4924989;29;20167;-75
2023/06/01 03:31:48;;;;;;;5.93;2.42;;;;;;;12.03;41.72;95901.72;4904497;29;20046;-75
2023/06/01 03:34:13;;;;;;;5.72;2.60;;;;;;;12.00;41.30;95896.78;4917516;29;20264;-75
2023/06/01 03:36:39;;;;;;;5.60;2.75;;;;;;;11.96;41.90;95898.13;4932451;29;20062;-75
2023/06/01 03:39:08;;;;;;;4.75;2.45;;;;;;;11.90;41.86;95900.50;4923240;29;20054;-75
2023/06/01 03:41:35;;;;;;;6.05;2.60;;;;;;;11.89;41.91;95895.34;4924123;29;20035;-75
2023/06/01 03:44:00;;;;;;;3.92;2.40;;;;;;;11.96;42.10;95896.28;4917903;29;20032;-74
2023/06/01 03:46:25;;;;;;;5.07;2.42;;;;;;;11.93;41.74;95895.84;4926615;29;20050;-75
2023/06/01 03:48:51;;;;;;;5.45;2.40;;;;;;;12.02;41.52;95895.59;4933491;29;20071;-75
2023/06/01 03:51:17;;;;;;;8.73;2.70;;;;;;;12.03;41.69;95899.91;4924282;29;20069;-75
2023/06/01 03:53:42;;;;;;;5.50;2.53;;;;;;;11.99;41.91;95903.09;4918768;29;20036;-74
2023/06/01 03:56:08;;;;;;;6.43;2.40;;;;;;;12.00;41.83;95907.47;4926927;29;20039;-74
2023/06/01 03:58:33;;;;;;;4.75;2.45;;;;;;;12.01;41.85;95904.59;4919084;29;20032;-74
2023/06/01 04:01:00;;;;;;;5.63;2.70;;;;;;;12.03;41.98;95901.72;4923210;29;20471;-74
2023/06/01 04:03:26;;;;;;;6.63;2.35;;;;;;;12.11;41.35;95903.53;4902316;29;20120;-74
2023/06/01 04:05:58;;;;;;;3.28;2.40;;;;;;;12.13;41.95;95905.03;4909428;29;20692;-75
2023/06/01 04:08:23;;;;;;;5.85;2.40;;;;;;;12.15;41.77;95905.69;4917550;29;20292;-74
2023/06/01 04:10:49;;;;;;;3.97;2.30;;;;;;;12.32;41.73;95900.19;4920462;29;20044;-74
2023/06/01 04:13:14;;;;;;;5.65;2.80;;;;;;;12.25;42.22;95909.91;4919809;29;20028;-74
2023/06/01 04:15:40;;;;;;;6.50;2.42;;;;;;;12.41;41.38;95901.75;4921230;29;20054;-74
2023/06/01 04:18:06;;;;;;;6.85;2.50;;;;;;;12.51;41.41;95904.16;4908116;29;20063;-74
2023/06/01 04:20:32;;;;;;;3.78;2.50;;;;;;;12.51;41.59;95898.81;4933329;29;20400;-74
2023/06/01 04:22:57;;;;;;;6.30;2.50;;;;;;;12.65;41.18;95896.34;4923903;29;20082;-75
2023/06/01 04:25:23;;;;;;;4.80;2.40;;;;;;;12.70;41.32;95895.75;4895479;29;20044;-74
2023/06/01 04:27:51;;;;;;;4.53;2.25;;;;;;;12.84;40.82;95897.59;4922976;29;20039;-74
2023/06/01 04:30:16;;;;;;;3.42;2.33;;;;;;;12.95;40.78;95898.16;4927006;29;20588;-74
2023/06/01 04:32:43;;;;;;;3.80;2.40;;;;;;;13.07;40.73;95890.50;4923611;29;20047;-74
2023/06/01 04:35:09;;;;;;;8.32;2.20;;;;;;;13.22;40.33;95904.66;4913010;29;20067;-74
2023/06/01 04:37:35;;;;;;;5.63;2.47;;;;;;;13.24;40.30;95901.81;4912624;29;20035;-74
2023/06/01 04:40:07;;;;;;;6.03;2.50;;;;;;;13.30;40.07;95901.88;4918829;29;20526;-74
2023/06/01 04:42:48;;;;;;;4.63;2.30;;;;;;;13.37;40.33;95909.16;4915115;29;20036;-74
2023/06/01 04:45:15;;;;;;;4.53;2.30;;;;;;;13.46;40.13;95899.19;4913717;29;20737;-74
2023/06/01 04:47:41;;;;;;;5.13;2.20;;;;;;;13.48;40.26;95899.81;4903965;29;20032;-74
2023/06/01 04:50:08;;;;;;;4.93;2.20;;;;;;;13.57;40.18;95902.16;4897633;29;20585;-75
2023/06/01 04:52:37;;;;;;;11.07;2.95;;;;;;;13.62;40.24;95901.59;4906635;29;20051;-74
2023/06/01 04:55:04;;;;;;;4.45;2.40;;;;;;;13.81;39.79;95902.81;4898510;29;20556;-74
2023/06/01 04:57:30;;;;;;;7.43;2.50;;;;;;;13.81;40.44;95900.13;4923759;29;20087;-75
2023/06/01 04:59:57;;;;;;;7.20;2.80;;;;;;;13.91;39.62;95894.47;4919713;29;20047;-75
2023/06/01 05:02:23;;;;;;;3.80;2.30;;;;;;;14.06;39.81;95899.78;4918652;29;20059;-75
2023/06/01 05:04:49;;;;;;;4.03;2.25;;;;;;;14.27;39.30;95894.56;4899474;29;20051;-76
2023/06/01 05:07:14;;;;;;;3.55;2.33;;;;;;;14.44;39.46;95889.72;4922837;29;20574;-75
2023/06/01 05:09:40;;;;;;;5.32;2.60;;;;;;;14.66;38.91;95892.34;4923753;29;20063;-76
2023/06/01 05:12:06;;;;;;;4.75;2.30;;;;;;;14.92;38.47;95890.88;4924565;29;20040;-75
2023/06/01 05:14:31;;;;;;;5.88;2.30;;;;;;;14.85;38.63;95898.84;4915389;29;20023;-76
2023/06/01 05:16:57;;;;;;;5.15;2.33;;;;;;;15.02;38.67;95894.00;4913187;29;20099;-76
2023/06/01 05:19:22;;;;;;;5.47;2.50;;;;;;;15.28;38.09;95892.44;4909200;29;20288;-76
2023/06/01 05:21:48;;;;;;;5.30;2.58;;;;;;;15.48;37.53;95889.84;4915106;29;20480;-76
2023/06/01 05:24:13;;;;;;;8.55;2.80;;;;;;;15.51;37.58;95898.50;4912842;29;20036;-76
2023/06/01 05:26:38;;;;;;;3.92;2.50;;;;;;;14.77;38.04;95899.03;4920252;29;20055;-76
2023/06/01 05:29:04;;;;;;;4.82;2.20;;;;;;;15.38;37.59;95899.28;4920497;29;20216;-76
2023/06/01 05:31:30;;;;;;;3.42;2.30;;;;;;;15.69;36.59;95898.78;4922665;29;20103;-76
2023/06/01 05:33:56;;;;;;;4.22;2.20;;;;;;;15.93;36.62;95898.38;4909516;29;20035;-75
2023/06/01 05:36:22;;;;;;;4.47;2.20;;;;;;;16.19;36.16;95902.09;4935013;29;20048;-76
2023/06/01 05:38:47;;;;;;;4.88;2.50;;;;;;;16.30;36.11;95900.66;4916161;29;20035;-76
2023/06/01 05:41:13;;;;;;;3.67;2.28;;;;;;;16.31;35.93;95902.31;4894998;29;20647;-76
2023/06/01 05:43:38;;;;;;;4.95;2.33;;;;;;;16.59;35.50;95904.78;4908210;29;20365;-76
2023/06/01 05:46:04;;;;;;;6.68;2.47;;;;;;;16.80;35.35;95899.34;4912126;29;20030;-76
2023/06/01 05:48:30;;;;;;;4.72;2.33;;;;;;;16.98;35.24;95896.81;4930546;29;20118;-76
2023/06/01 05:50:55;;;;;;;5.05;2.40;;;;;;;16.99;35.25;95898.47;4925994;29;20387;-76
2023/06/01 05:53:24;;;;;;;3.35;2.03;;;;;;;17.09;34.79;95897.19;4900399;29;20414;-76
2023/06/01 05:55:50;;;;;;;5.53;2.38;;;;;;;17.06;35.10;95893.06;4896952;29;20106;-76
2023/06/01 05:58:16;;;;;;;4.63;2.38;;;;;;;17.12;34.78;95891.41;4916000;29;20071;-76
2023/06/01 06:00:41;;;;;;;5.55;2.60;;;;;;;17.30;34.64;95898.78;4900284;29;20043;-76
2023/06/01 06:03:07;;;;;;;7.57;2.30;;;;;;;17.49;34.30;95891.66;4918748;29;20055;-76
2023/06/01 06:05:32;;;;;;;4.68;2.30;;;;;;;17.64;34.83;95894.03;4912974;29;20050;-76
2023/06/01 06:07:57;;;;;;;5.93;2.65;;;;;;;17.44;34.77;95888.78;4930210;29;20087;-76
2023/06/01 06:10:23;;;;;;;6.28;2.25;;;;;;;17.52;33.65;95901.16;4909538;29;20101;-76
2023/06/01 06:12:48;;;;;;;4.00;2.30;;;;;;;17.77;34.69;95893.13;4920917;29;20509;-77
2023/06/01 06:15:14;;;;;;;5.93;2.33;;;;;;;18.00;33.54;95897.16;4909954;29;20430;-76
2023/06/01 06:17:39;;;;;;;6.15;2.50;;;;;;;18.13;33.88;95896.22;4915113;29;20028;-76
2023/06/01 06:20:09;;;;;;;4.65;2.22;;;;;;;18.24;33.35;95897.38;4921373;29;20050;-76
2023/06/01 06:22:34;;;;;;;6.63;2.30;;;;;;;18.33;32.71;95897.94;4915640;29;20063;-76
2023/06/01 06:25:00;;;;;;;6.57;2.42;;;;;;;18.23;32.14;95890.34;4909878;29;20092;-77
2023/06/01 06:27:26;;;;;;;5.45;2.30;;;;;;;18.40;32.40;95897.88;4899744;29;20040;-77
2023/06/01 06:29:51;;;;;;;4.93;2.22;;;;;;;18.59;32.35;95893.34;4910970;29;20577;-77
2023/06/01 06:32:19;;;;;;;5.18;2.50;;;;;;;18.60;32.73;95891.47;4925167;29;20050;-77
2023/06/01 06:34:45;;;;;;;4.13;2.20;;;;;;;18.88;32.46;95892.84;4915941;29;20054;-77
2023/06/01 06:37:11;;;;;;;5.50;2.47;;;;;;;19.02;30.95;95904.31;4906953;29;20511;-77
2023/06/01 06:39:37;;;;;;;4.03;2.28;;;;;;;18.73;31.57;95899.41;4916270;29;20043;-77
2023/06/01 06:42:03;;;;;;;4.03;2.30;;;;;;;18.62;30.64;95892.06;4908376;29;20036;-77
2023/06/01 06:44:28;;;;;;;6.65;2.38;;;;;;;18.43;32.27;95900.13;4900082;29;20052;-77
2023/06/01 06:46:54;;;;;;;6.90;2.13;;;;;;;18.71;30.92;95900.69;4908173;29;20077;-77
2023/06/01 06:49:19;;;;;;;6.95;2.33;;;;;;;18.94;31.24;95905.44;4905721;29;20039;-77
2023/06/01 06:51:45;;;;;;;8.35;2.45;;;;;;;19.14;30.59;95897.09;4903656;29;20040;-77
2023/06/01 06:54:11;;;;;;;3.58;2.30;;;;;;;19.51;30.36;95895.44;4909362;29;20090;-77
2023/06/01 06:56:36;;;;;;;4.00;2.15;;;;;;;19.70;30.04;95905.13;4902551;29;20039;-77
2023/06/01 06:59:02;;;;;;;5.63;2.40;;;;;;;19.67;29.62;95907.44;4918256;29;20529;-77
2023/06/01 07:01:28;;;;;;;9.70;2.40;;;;;;;19.86;30.17;95910.94;4902012;29;20104;-77
2023/06/01 07:03:53;;;;;;;3.80;2.10;;;;;;;19.84;29.98;95915.72;4933929;29;20050;-77
2023/06/01 07:06:19;;;;;;;4.88;2.13;;;;;;;20.18;28.74;95917.94;4913516;29;20039;-77
2023/06/01 07:08:44;;;;;;;7.13;2.35;;;;;;;20.29;28.29;95913.63;4932242;29;20306;-77
2023/06/01 07:11:10;;;;;;;6.40;2.30;;;;;;;20.37;28.58;95921.41;4924154;29;20038;-77
2023/06/01 07:13:35;;;;;;;5.65;2.10;;;;;;;20.65;28.14;95916.34;4919106;29;20382;-77
2023/06/01 07:16:02;;;;;;;6.72;2.30;;;;;;;20.36;28.20;95912.44;4915662;29;20039;-77
2023/06/01 07:18:28;;;;;;;5.85;2.13;;;;;;;20.54;28.75;95907.16;4922197;29;20083;-77
2023/06/01 07:20:54;;;;;;;4.65;2.40;;;;;;;20.34;29.42;95911.03;4900123;29;20541;-77
2023/06/01 07:23:19;;;;;;;3.17;2.25;;;;;;;19.95;28.64;95919.50;4912888;29;20064;-77
2023/06/01 07:25:45;;;;;;;5.70;2.47;;;;;;;20.27;29.54;95916.56;4905420;29;20035;-77
2023/06/01 07:28:12;;;;;;;5.95;2.80;;;;;;;19.92;30.60;95910.00;4912436;29;20028;-77
2023/06/01 07:30:38;;;;;;;3.45;2.15;;;;;;;20.47;29.37;95915.41;4909780;29;20090;-77
2023/06/01 07:33:04;;;;;;;4.53;2.50;;;;;;;19.99;27.81;95909.94;4912110;29;20036;-77
2023/06/01 07:35:29;;;;;;;6.90;3.95;;;;;;;19.52;28.20;95913.28;4896866;29;20502;-77
2023/06/01 07:37:55;;;;;;;7.20;2.60;;;;;;;19.63;28.81;95917.91;4926625;29;20171;-77
2023/06/01 07:40:21;;;;;;;6.07;2.42;;;;;;;19.65;28.90;95915.78;4926038;29;20050;-77
2023/06/01 07:42:46;;;;;;;5.07;3.13;;;;;;;19.93;30.40;95919.75;4907229;29;20053;-77
2023/06/01 07:45:13;;;;;;;6.15;2.83;;;;;;;19.20;30.50;95915.09;4899744;29;20035;-77
2023/06/01 07:47:38;;;;;;;5.57;2.70;;;;;;;19.44;30.22;95909.00;4916309;29;20028;-77
2023/06/01 07:50:04;;;;;;;4.45;2.55;;;;;;;19.87;28.87;95914.44;4900835;29;20032;-68
2023/06/01 07:52:30;;;;;;;7.13;2.88;;;;;;;20.33;28.53;95914.81;4918645;29;20537;-69
2023/06/01 07:54:55;;;;;;;6.07;2.72;;;;;;;19.95;29.89;95911.41;4920154;29;20044;-69
2023/06/01 07:57:21;;;;;;;5.15;2.33;;;;;;;18.81;30.38;95912.63;4919436;29;20043;-69
2023/06/01 07:59:46;;;;;;;11.02;7.55;;;;;;;19.61;30.25;95909.19;4917414;29;20172;-69
2023/06/01 08:02:13;;;;;;;6.93;4.45;;;;;;;20.27;28.50;95910.31;4923992;29;20039;-69
2023/06/01 08:04:39;;;;;;;8.90;5.00;;;;;;;20.34;29.07;95914.56;4923007;29;20078;-68
2023/06/01 08:07:06;;;;;;;4.32;2.10;;;;;;;21.03;28.08;95908.78;4921504;29;20044;-68
2023/06/01 08:09:31;;;;;;;9.10;3.80;;;;;;;20.67;27.79;95911.53;4923301;29;20502;-68
2023/06/01 08:11:57;;;;;;;7.20;4.13;;;;;;;20.59;26.86;95910.81;4922018;29;20043;-69
2023/06/01 08:14:23;;;;;;;8.55;5.65;;;;;;;20.45;27.84;95912.09;4923816;29;20184;-69
2023/06/01 08:16:48;;;;;;;11.38;6.47;;;;;;;20.79;26.75;95906.94;4923142;29;20039;-69
2023/06/01 08:19:13;;;;;;;4.78;1.98;;;;;;;21.00;27.49;95915.50;4921645;29;20031;-69
2023/06/01 08:21:41;;;;;;;4.53;2.20;;;;;;;20.50;29.15;95914.94;4923449;29;20487;-69
2023/06/01 08:24:08;;;;;;;4.95;2.67;;;;;;;20.28;28.04;95912.78;4920920;29;20053;-69
2023/06/01 08:26:34;;;;;;;5.10;2.40;;;;;;;19.55;29.42;95910.94;4923034;29;20758;-69
2023/06/01 08:29:00;;;;;;;4.65;2.13;;;;;;;19.20;29.21;95908.84;4907793;29;20043;-68
2023/06/01 08:31:25;;;;;;;4.72;2.50;;;;;;;19.00;28.77;95920.72;4917594;29;20050;-68
2023/06/01 08:33:51;;;;;;;10.38;4.32;;;;;;;19.24;29.12;95915.44;4920691;29;20067;-69
2023/06/01 08:36:16;;;;;;;6.53;3.50;;;;;;;19.67;28.74;95907.44;4921902;29;20063;-68
2023/06/01 08:38:42;;;;;;;5.85;2.10;;;;;;;19.76;30.50;95913.34;4921908;29;20063;-69
2023/06/01 08:41:43;;;;;;;9.25;4.32;;;;;;;20.14;29.29;95914.06;4921704;29;20121;-68
2023/06/01 08:44:08;;;;;;;6.88;2.75;;;;;;;20.33;28.16;95904.00;4907361;29;20044;-69
2023/06/01 08:46:36;;;;;;;6.20;2.45;;;;;;;20.43;28.11;95904.22;4923610;29;20363;-68
2023/06/01 08:49:02;;;;;;;5.35;3.08;;;;;;;20.32;28.17;95902.31;4920750;29;20516;-68
2023/06/01 08:51:28;;;;;;;5.47;2.28;;;;;;;20.17;28.16;95903.63;4910266;29;20040;-69
2023/06/01 08:53:55;;;;;;;7.90;2.38;;;;;;;18.98;30.92;95897.72;4896764;29;20525;-68
2023/06/01 08:56:21;;;;;;;4.80;2.10;;;;;;;19.41;32.30;95904.09;4928949;29;20059;-68
2023/06/01 08:58:47;;;;;;;6.78;2.58;;;;;;;19.20;30.65;95893.50;4916373;29;20038;-68
2023/06/01 09:01:16;;;;;;;8.60;2.80;;;;;;;18.44;32.01;95896.38;4925362;29;20437;-68
2023/06/01 09:03:41;;;;;;;4.45;2.30;;;;;;;18.10;33.19;95895.84;4924387;29;20057;-67
2023/06/01 09:06:07;;;;;;;4.18;2.50;;;;;;;18.09;33.56;95891.50;4926502;29;20044;-68
2023/06/01 09:08:32;;;;;;;3.75;2.17;;;;;;;17.81;33.89;95888.13;4929614;29;20043;-67
2023/06/01 09:10:58;;;;;;;8.15;2.38;;;;;;;17.86;32.40;95891.03;4925476;29;20075;-67
2023/06/01 09:13:37;;;;;;;4.40;2.35;;;;;;;17.26;32.32;95887.63;4925957;29;20070;-68
2023/06/01 09:16:03;;;;;;;6.68;2.42;;;;;;;17.39;34.03;95885.91;4925891;29;20387;-68
2023/06/01 09:18:28;;;;;;;4.82;2.38;;;;;;;17.27;33.19;95883.09;4925267;29;20355;-67
2023/06/01 09:20:56;;;;;;;7.28;2.60;;;;;;;17.98;34.29;95877.69;4923448;29;20094;-68
2023/06/01 09:23:25;;;;;;;7.30;2.50;;;;;;;17.74;33.07;95874.72;4914406;29;20437;-68
2023/06/01 09:26:04;;;;;;;3.92;2.50;;;;;;;17.48;33.81;95879.25;4913565;29;20087;-69
2023/06/01 09:28:30;;;;;;;9.07;3.10;;;;;;;17.97;33.38;95881.44;4925874;29;20086;-76
2023/06/01 09:30:55;;;;;;;5.38;2.70;;;;;;;18.86;32.38;95881.47;4907003;29;20047;-76
2023/06/01 09:33:21;;;;;;;8.60;2.60;;;;;;;19.54;31.02;95874.19;4912917;29;20106;-76
2023/06/01 09:35:47;;;;;;;5.18;2.63;;;;;;;20.08;30.03;95876.13;4916600;29;20498;-76
2023/06/01 09:38:26;;;;;;;6.50;2.43;;;;;;;19.66;32.11;95882.34;4896727;29;20040;-75
2023/06/01 09:40:59;;;;;;;6.82;2.47;;;;;;;19.97;32.18;95879.63;4915468;29;20035;-76
2023/06/01 09:43:25;;;;;;;6.03;2.80;;;;;;;19.78;29.67;95868.06;4897684;29;20031;-76
2023/06/01 09:46:10;;;;;;;7.57;2.92;;;;;;;20.17;29.12;95870.34;4907794;29;20087;-76
2023/06/01 09:48:36;;;;;;;3.95;2.55;;;;;;;20.67;30.36;95866.38;4914190;29;20031;-76
2023/06/01 09:51:02;;;;;;;7.13;2.53;;;;;;;20.44;28.51;95861.78;4918222;29;20043;-76
2023/06/01 09:53:27;;;;;;;8.07;3.03;;;;;;;21.02;29.61;95856.56;4925206;29;20038;-76
2023/06/01 09:56:00;;;;;;;5.97;3.20;;;;;;;21.26;29.57;95853.78;4912685;29;20094;-77
2023/06/01 09:58:25;;;;;;;4.95;2.67;;;;;;;21.37;29.65;95855.66;4910289;29;20023;-77
2023/06/01 10:00:51;;;;;;;5.68;2.80;;;;;;;20.42;29.00;95858.50;4917020;29;20062;-77
2023/06/01 10:03:17;;;;;;;5.35;2.50;;;;;;;20.60;29.26;95860.25;4896831;29;20043;-67
2023/06/01 10:05:43;;;;;;;5.47;2.63;;;;;;;20.74;27.92;95858.97;4919215;29;20405;-67
2023/06/01 10:08:11;;;;;;;4.82;2.42;;;;;;;21.24;30.02;95859.41;4922208;29;20048;-67
2023/06/01 10:10:36;;;;;;;5.00;2.58;;;;;;;21.62;27.74;95854.44;4924071;29;20612;-67
2023/06/01 10:13:02;;;;;;;6.07;2.50;;;;;;;21.09;30.33;95854.53;4928020;29;20047;-67
2023/06/01 10:15:27;;;;;;;6.55;2.40;;;;;;;21.84;27.20;95858.34;4910635;29;20131;-67
2023/06/01 10:17:53;;;;;;;6.63;2.58;;;;;;;20.97;29.42;95851.84;4929661;29;20032;-67
2023/06/01 10:20:18;;;;;;;4.30;2.50;;;;;;;20.55;30.77;95852.84;4932722;29;20039;-67
2023/06/01 10:22:43;;;;;;;8.73;2.60;;;;;;;20.32;29.79;95845.56;4916484;29;20465;-67
2023/06/01 10:25:10;;;;;;;4.88;2.30;;;;;;;20.56;30.50;95843.66;4909547;29;20442;-67
2023/06/01 10:27:39;;;;;;;6.07;2.13;;;;;;;19.82;29.79;95845.72;4893928;29;20146;-67
2023/06/01 10:30:07;;;;;;;4.32;2.28;;;;;;;19.02;32.63;95840.38;4913173;29;20431;-66
2023/06/01 10:32:40;;;;;;;6.03;2.55;;;;;;;19.57;31.13;95837.81;4913044;29;20316;-67
2023/06/01 10:35:07;;;;;;;5.25;2.45;;;;;;;20.22;31.22;95843.44;4924563;29;20031;-66
2023/06/01 10:37:33;;;;;;;4.35;2.30;;;;;;;19.36;33.47;95836.44;4925306;29;20285;-66
2023/06/01 10:40:23;;;;;;;3.70;2.08;;;;;;;18.82;32.32;95840.63;4923927;29;20130;-67
2023/06/01 10:42:49;;;;;;;5.25;2.20;;;;;;;19.11;29.35;95834.69;4924054;29;20042;-66
2023/06/01 10:45:33;;;;;;;8.38;5.43;;;;;;;20.21;27.59;95828.28;4923055;29;20241;-67
2023/06/01 10:47:59;;;;;;;4.57;2.00;;;;;;;21.16;25.87;95829.19;4923872;29;20410;-67
2023/06/01 10:50:24;;;;;;;3.38;2.53;;;;;;;20.72;29.24;95835.91;4924254;29;20032;-67
2023/06/01 10:52:51;;;;;;;3.38;2.20;;;;;;;20.09;27.93;95831.81;4923110;29;20127;-67
2023/06/01 10:55:16;;;;;;;3.08;2.10;;;;;;;19.12;28.70;95820.97;4918527;29;20036;-67
2023/06/01 10:57:45;;;;;;;4.90;2.30;;;;;;;19.54;30.25;95827.47;4924872;29;20545;-67
2023/06/01 11:00:14;;;;;;;10.20;7.70;;;;;;;20.09;26.47;95821.00;4924567;29;20280;-67
2023/06/01 11:02:44;;;;;;;3.70;2.22;;;;;;;21.08;27.95;95820.41;4922163;29;20495;-68
2023/06/01 11:05:37;;;;;;;5.38;2.85;;;;;;;20.28;31.15;95818.19;4924271;29;20075;-68
2023/06/01 11:08:24;;;;;;;3.92;1.73;;;;;;;20.26;28.77;95824.91;4923673;29;20055;-67
2023/06/01 11:10:59;;;;;;;3.72;1.60;;;;;;;20.14;23.68;95819.47;4883668;29;20040;-68
2023/06/01 11:13:34;;;;;;;3.25;1.80;;;;;;;21.00;24.42;95820.78;4922396;29;20051;-68
2023/06/01 11:16:07;;;;;;;2.45;1.48;;;;;;;19.41;20.45;95813.09;4909946;29;20039;-68
2023/06/01 11:18:45;;;;;;;2.67;1.92;;;;;;;20.12;23.40;95819.72;4922878;29;20081;-67
2023/06/01 11:21:18;;;;;;;2.22;1.70;;;;;;;19.41;20.08;95820.41;4924513;29;20461;-67
2023/06/01 11:23:47;;;;;;;1.88;1.67;;;;;;;20.07;23.00;95817.72;4921560;29;20468;-68
2023/06/01 11:26:14;;;;;;;3.10;2.00;;;;;;;20.33;19.11;95818.28;4924403;29;20314;-68
2023/06/01 11:28:40;;;;;;;3.67;1.65;;;;;;;20.72;19.31;95820.53;4920500;29;20040;-67
2023/06/01 11:31:09;;;;;;;3.03;2.10;;;;;;;20.07;18.65;95816.91;4924342;29;20648;-68
2023/06/01 11:33:34;;;;;;;2.47;2.03;;;;;;;20.42;18.26;95809.81;4915384;29;20044;-68
2023/06/01 11:36:05;;;;;;;4.45;2.60;;;;;;;20.24;19.16;95814.31;4906650;29;20055;-68